createdAt,value
2022-07-26T00:01:22.496Z,39.70
2022-07-26T00:03:51.037Z,49.80
2022-07-26T00:06:19.587Z,47.60
2022-07-26T00:08:48.273Z,58.70
2022-07-26T00:11:16.528Z,66.50
2022-07-26T00:13:44.781Z,61.70
2022-07-26T00:16:14.445Z,61.70
2022-07-26T00:18:43.120Z,59.90
2022-07-26T00:21:11.751Z,63.00
2022-07-26T00:23:40.094Z,57.80
2022-07-26T00:26:08.529Z,54.90
2022-07-26T00:28:36.846Z,60.10
2022-07-26T00:31:05.292Z,70.90
2022-07-26T00:33:34.892Z,63.70
2022-07-26T00:36:03.125Z,90.10
2022-07-26T00:38:31.364Z,90.70
2022-07-26T00:40:59.967Z,87.10
2022-07-26T00:43:28.192Z,90.80
2022-07-26T00:45:56.443Z,94.20
2022-07-26T00:48:24.843Z,97.30
2022-07-26T00:50:55.869Z,99.20
2022-07-26T00:53:24.329Z,92.80
2022-07-26T00:55:52.738Z,99.90
2022-07-26T00:58:20.899Z,93.50
2022-07-26T01:00:49.206Z,95.90
2022-07-26T01:03:17.471Z,99.10
2022-07-26T01:05:45.746Z,99.90
2022-07-26T01:08:15.369Z,99.90
2022-07-26T01:10:43.883Z,99.90
2022-07-26T01:13:13.291Z,99.90
2022-07-26T01:15:41.539Z,99.90
2022-07-26T01:18:09.775Z,99.90
2022-07-26T01:20:38.085Z,99.90
2022-07-26T01:23:07.731Z,99.90
2022-07-26T01:25:43.299Z,99.90
2022-07-26T01:28:12.095Z,99.90
2022-07-26T01:30:49.173Z,99.90
2022-07-26T01:33:17.626Z,99.90
2022-07-26T01:35:46.064Z,99.90
2022-07-26T01:38:15.753Z,99.90
2022-07-26T01:40:43.959Z,99.90
2022-07-26T01:43:12.468Z,99.90
2022-07-26T01:45:40.692Z,99.90
2022-07-26T01:48:09.710Z,99.90
2022-07-26T01:50:38.228Z,99.90
2022-07-26T01:53:06.629Z,99.90
2022-07-26T01:55:36.319Z,99.90
2022-07-26T01:58:05.206Z,99.90
2022-07-26T02:00:34.063Z,99.90
2022-07-26T02:03:02.645Z,99.90
2022-07-26T02:05:31.034Z,99.90
2022-07-26T02:07:59.379Z,99.90
2022-07-26T02:10:48.758Z,99.90
2022-07-26T02:13:18.426Z,99.90
2022-07-26T02:15:46.820Z,99.90
2022-07-26T02:18:15.011Z,99.90
2022-07-26T02:20:43.283Z,99.90
2022-07-26T02:23:11.492Z,99.90
2022-07-26T02:25:39.766Z,99.90
2022-07-26T02:28:07.968Z,95.90
2022-07-26T02:30:38.290Z,75.00
2022-07-26T02:33:07.746Z,69.50
2022-07-26T02:35:36.139Z,81.60
2022-07-26T02:38:04.704Z,91.20
2022-07-26T02:40:33.156Z,95.00
2022-07-26T02:43:01.726Z,83.70
2022-07-26T02:45:30.031Z,99.90
2022-07-26T02:47:59.605Z,99.90
2022-07-26T02:50:28.516Z,94.20
2022-07-26T02:52:56.748Z,74.00
2022-07-26T02:55:26.282Z,71.40
2022-07-26T02:57:54.510Z,58.20
2022-07-26T03:00:23.895Z,81.80
2022-07-26T03:02:52.879Z,84.20
2022-07-26T03:05:22.631Z,82.40
2022-07-26T03:07:50.846Z,99.90
2022-07-26T03:10:19.167Z,93.30
2022-07-26T03:12:47.368Z,80.00
2022-07-26T03:15:16.034Z,98.30
2022-07-26T03:17:44.273Z,95.50
2022-07-26T03:20:13.838Z,99.90
2022-07-26T03:22:43.368Z,97.60
2022-07-26T03:25:11.774Z,99.90
2022-07-26T03:27:39.942Z,99.90
2022-07-26T03:30:09.544Z,93.10
2022-07-26T03:32:37.765Z,90.40
2022-07-26T03:35:06.726Z,96.80
2022-07-26T03:37:46.205Z,99.90
2022-07-26T03:40:17.222Z,99.90
2022-07-26T03:42:45.545Z,99.90
2022-07-26T03:45:14.505Z,99.90
2022-07-26T03:47:42.938Z,99.90
2022-07-26T03:50:13.814Z,99.90
2022-07-26T03:52:42.361Z,99.90
2022-07-26T03:55:25.261Z,99.90
2022-07-26T03:57:54.778Z,99.90
2022-07-26T04:00:23.020Z,99.90
2022-07-26T04:02:51.401Z,99.90
2022-07-26T04:05:23.440Z,99.90
2022-07-26T04:07:53.643Z,99.90
2022-07-26T04:10:22.306Z,99.90
2022-07-26T04:12:50.555Z,99.90
2022-07-26T04:15:21.410Z,99.90
2022-07-26T04:17:49.600Z,99.90
2022-07-26T04:20:17.886Z,99.90
2022-07-26T04:22:46.174Z,99.90
2022-07-26T04:25:14.579Z,99.90
2022-07-26T04:27:42.837Z,99.90
2022-07-26T04:30:15.174Z,99.90
2022-07-26T04:32:46.362Z,99.90
2022-07-26T04:35:16.623Z,99.90
2022-07-26T04:37:45.077Z,99.90
2022-07-26T04:40:16.664Z,99.90
2022-07-26T04:42:44.977Z,99.90
2022-07-26T04:45:13.905Z,99.90
2022-07-26T04:47:44.362Z,99.90
2022-07-26T04:50:13.133Z,99.90
2022-07-26T04:52:43.558Z,99.90
2022-07-26T04:55:11.846Z,99.90
2022-07-26T04:57:40.035Z,99.90
2022-07-26T05:00:24.626Z,92.10
2022-07-26T05:02:55.278Z,40.20
2022-07-26T05:05:23.954Z,35.00
2022-07-26T05:07:53.488Z,31.90
2022-07-26T05:10:22.879Z,39.40
2022-07-26T05:12:51.630Z,43.10
2022-07-26T05:15:19.921Z,44.80
2022-07-26T05:17:48.219Z,54.00
2022-07-26T05:20:17.887Z,39.30
2022-07-26T05:22:46.171Z,31.10
2022-07-26T05:25:14.412Z,30.50
2022-07-26T05:27:43.047Z,37.20
2022-07-26T05:30:12.041Z,24.30
2022-07-26T05:32:40.323Z,26.40
2022-07-26T05:35:09.717Z,20.30
2022-07-26T05:37:39.297Z,21.00
2022-07-26T05:40:08.782Z,28.00
2022-07-26T05:42:37.559Z,33.20
2022-07-26T05:45:06.543Z,51.90
2022-07-26T05:47:34.745Z,71.20
2022-07-26T05:50:02.960Z,61.60
2022-07-26T05:52:31.419Z,49.30
2022-07-26T05:55:01.158Z,42.70
2022-07-26T05:57:29.488Z,46.70
2022-07-26T05:59:57.897Z,45.60
2022-07-26T06:02:26.139Z,65.80
2022-07-26T06:04:54.536Z,55.10
2022-07-26T06:07:24.465Z,52.10
2022-07-26T06:09:52.770Z,59.20
2022-07-26T06:12:22.389Z,58.10
2022-07-26T06:14:50.596Z,55.70
2022-07-26T06:17:19.024Z,57.30
2022-07-26T06:19:47.844Z,67.10
2022-07-26T06:22:16.590Z,65.50
2022-07-26T06:24:44.847Z,68.20
2022-07-26T06:27:13.144Z,62.60
2022-07-26T06:29:42.701Z,83.80
2022-07-26T06:32:10.943Z,96.10
2022-07-26T06:34:39.218Z,93.70
2022-07-26T06:37:07.594Z,99.90
2022-07-26T06:39:35.854Z,99.90
2022-07-26T06:42:04.098Z,99.90
2022-07-26T06:44:32.387Z,99.90
2022-07-26T06:47:01.968Z,99.90
2022-07-26T06:49:30.268Z,99.90
2022-07-26T06:51:58.791Z,99.90
2022-07-26T06:54:26.956Z,99.90
2022-07-26T06:56:55.323Z,99.90
2022-07-26T06:59:23.529Z,99.90
2022-07-26T07:01:57.771Z,99.90
2022-07-26T07:04:30.214Z,99.90
2022-07-26T07:07:04.516Z,99.90
2022-07-26T07:09:34.294Z,99.90
2022-07-26T07:12:09.709Z,99.90
2022-07-26T07:14:39.161Z,99.90
2022-07-26T07:17:13.119Z,99.90
2022-07-26T07:19:44.538Z,99.90
2022-07-26T07:22:13.045Z,99.90
2022-07-26T07:24:41.254Z,99.90
2022-07-26T07:27:10.439Z,99.90
2022-07-26T07:29:41.455Z,99.90
2022-07-26T07:32:18.381Z,99.90
2022-07-26T07:34:49.495Z,99.90
2022-07-26T07:37:18.350Z,99.90
2022-07-26T07:39:50.508Z,99.90
2022-07-26T07:42:19.309Z,99.90
2022-07-26T07:44:47.577Z,99.90
2022-07-26T07:47:15.748Z,99.90
2022-07-26T07:49:43.937Z,99.90
2022-07-26T07:52:13.458Z,99.90
2022-07-26T07:54:42.184Z,99.90
2022-07-26T07:57:10.655Z,1.00
2022-07-26T07:59:39.353Z,1.00
2022-07-26T08:02:08.270Z,1.00
2022-07-26T08:04:36.619Z,1.00
2022-07-26T08:07:04.840Z,1.00
2022-07-26T08:09:34.460Z,1.00
2022-07-26T08:12:02.705Z,1.00
2022-07-26T08:14:31.018Z,1.00
2022-07-26T08:16:59.292Z,1.00
2022-07-26T08:19:41.439Z,1.00
2022-07-26T08:22:10.673Z,1.00
2022-07-26T08:24:40.653Z,1.00
2022-07-26T08:27:08.955Z,99.90
2022-07-26T08:29:37.347Z,99.90
2022-07-26T08:32:06.102Z,99.90
2022-07-26T08:34:34.345Z,99.90
2022-07-26T08:37:18.371Z,99.90
2022-07-26T08:39:48.217Z,99.90
2022-07-26T08:42:16.991Z,99.90
2022-07-26T08:44:50.592Z,99.90
2022-07-26T08:47:35.464Z,99.90
2022-07-26T08:50:07.327Z,99.90
2022-07-26T08:52:35.476Z,99.90
2022-07-26T08:55:05.415Z,99.90
2022-07-26T08:57:33.710Z,99.90
2022-07-26T09:00:19.000Z,99.90
2022-07-26T09:02:47.251Z,99.90
2022-07-26T09:05:15.514Z,99.90
2022-07-26T09:07:45.299Z,99.90
2022-07-26T09:10:15.616Z,99.90
2022-07-26T09:12:44.027Z,99.90
2022-07-26T09:15:20.073Z,99.90
2022-07-26T09:17:49.080Z,58.60
2022-07-26T09:20:18.362Z,42.50
2022-07-26T09:23:01.139Z,99.90
2022-07-26T09:25:31.481Z,99.90
2022-07-26T09:28:00.549Z,15.90
2022-07-26T09:30:29.189Z,48.70
2022-07-26T09:32:59.332Z,43.70
2022-07-26T09:35:51.251Z,1.00
2022-07-26T09:38:16.017Z,39.00
2022-07-26T09:40:50.848Z,38.70
2022-07-26T09:43:23.858Z,10.50
2022-07-26T09:46:04.807Z,99.90
2022-07-26T09:48:59.531Z,99.90
2022-07-26T09:51:36.623Z,99.90
2022-07-26T09:54:05.214Z,52.30
2022-07-26T09:56:48.694Z,8.40
2022-07-26T09:59:17.440Z,99.90
2022-07-26T10:01:45.889Z,99.90
2022-07-26T10:04:14.451Z,99.90
2022-07-26T10:06:42.926Z,99.90
2022-07-26T10:09:11.657Z,99.90
2022-07-26T10:11:42.775Z,99.90
2022-07-26T10:14:40.850Z,99.90
2022-07-26T10:17:45.487Z,99.90
2022-07-26T10:20:44.713Z,99.90
2022-07-26T10:23:35.487Z,99.90
2022-07-26T10:26:04.876Z,99.90
2022-07-26T10:28:33.882Z,99.90
2022-07-26T10:31:30.692Z,99.90
2022-07-26T10:34:00.384Z,99.90
2022-07-26T10:36:36.469Z,99.90
2022-07-26T10:39:13.232Z,99.90
2022-07-26T10:41:58.329Z,99.90
2022-07-26T10:44:27.284Z,99.90
2022-07-26T10:47:04.660Z,99.90
2022-07-26T10:49:36.519Z,99.90
2022-07-26T10:52:09.153Z,99.90
2022-07-26T10:55:19.452Z,99.90
2022-07-26T10:57:49.124Z,99.90
2022-07-26T11:00:19.551Z,99.90
2022-07-26T11:02:55.346Z,99.90
2022-07-26T11:05:26.028Z,99.90
2022-07-26T11:07:59.506Z,99.90
2022-07-26T11:10:29.532Z,99.90
2022-07-26T11:13:15.200Z,99.90
2022-07-26T11:15:45.811Z,99.90
2022-07-26T11:18:27.949Z,1.00
2022-07-26T11:20:57.140Z,1.00
2022-07-26T11:23:30.696Z,1.00
2022-07-26T11:26:06.406Z,1.00
2022-07-26T11:28:55.426Z,99.90
2022-07-26T11:31:51.983Z,66.60
2022-07-26T11:34:19.735Z,99.90
2022-07-26T11:36:48.233Z,99.90
2022-07-26T11:39:17.228Z,99.90
2022-07-26T11:41:45.421Z,49.70
2022-07-26T11:44:16.846Z,99.90
2022-07-26T11:46:48.002Z,1.00
2022-07-26T11:49:18.681Z,1.00
2022-07-26T11:51:51.291Z,1.00
2022-07-26T11:54:19.635Z,99.90
2022-07-26T11:56:54.955Z,31.40
2022-07-26T11:59:23.425Z,1.00
2022-07-26T12:01:51.615Z,99.90
2022-07-26T12:04:22.489Z,99.90
2022-07-26T12:06:52.265Z,99.90
2022-07-26T12:09:33.704Z,58.60
2022-07-26T12:12:02.523Z,99.90
2022-07-26T12:14:31.438Z,1.00
2022-07-26T12:16:59.796Z,1.00
2022-07-26T12:19:30.644Z,1.00
2022-07-26T12:22:00.465Z,99.90
2022-07-26T12:24:42.698Z,1.00
2022-07-26T12:27:12.342Z,1.00
2022-07-26T12:29:42.903Z,1.00
2022-07-26T12:32:13.092Z,1.00
2022-07-26T12:34:44.495Z,95.90
2022-07-26T12:37:17.421Z,1.00
2022-07-26T12:40:04.219Z,1.00
2022-07-26T12:42:34.706Z,1.00
2022-07-26T12:45:03.108Z,36.50
2022-07-26T12:47:31.342Z,96.50
2022-07-26T12:50:01.564Z,57.60
2022-07-26T12:52:30.009Z,99.90
2022-07-26T12:54:58.440Z,1.00
2022-07-26T12:57:27.369Z,99.90
2022-07-26T12:59:55.684Z,99.90
2022-07-26T13:02:23.885Z,1.00
2022-07-26T13:04:54.366Z,1.00
2022-07-26T13:07:26.489Z,99.90
2022-07-26T13:10:21.587Z,45.40
2022-07-26T13:12:43.389Z,99.90
2022-07-26T13:15:12.087Z,99.90
2022-07-26T13:17:41.980Z,19.60
2022-07-26T13:20:10.866Z,99.90
2022-07-26T13:22:40.514Z,99.90
2022-07-26T13:25:10.006Z,99.90
2022-07-26T13:27:42.908Z,99.90
2022-07-26T13:30:14.130Z,99.90
2022-07-26T13:32:42.343Z,42.20
2022-07-26T13:35:10.733Z,99.90
2022-07-26T13:37:41.206Z,1.00
2022-07-26T13:40:10.587Z,4.70
2022-07-26T13:42:39.250Z,99.90
2022-07-26T13:45:08.867Z,1.00
2022-07-26T13:47:37.091Z,1.00
2022-07-26T13:50:06.654Z,99.90
2022-07-26T13:52:36.087Z,99.90
2022-07-26T13:55:06.718Z,16.70
2022-07-26T13:57:39.763Z,99.90
2022-07-26T14:00:23.582Z,99.90
2022-07-26T14:02:51.906Z,99.90
2022-07-26T14:05:20.366Z,99.90
2022-07-26T14:07:48.716Z,1.00
2022-07-26T14:10:18.378Z,83.30
2022-07-26T14:12:47.934Z,99.90
2022-07-26T14:15:21.411Z,1.00
2022-07-26T14:17:50.689Z,1.00
2022-07-26T14:20:19.053Z,1.00
2022-07-26T14:22:48.259Z,1.00
2022-07-26T14:25:17.955Z,99.90
2022-07-26T14:27:46.136Z,99.90
2022-07-26T14:30:15.494Z,33.10
2022-07-26T14:32:43.687Z,1.00
2022-07-26T14:35:12.070Z,99.90
2022-07-26T14:37:41.871Z,99.90
2022-07-26T14:40:14.422Z,99.90
2022-07-26T14:42:44.055Z,99.90
2022-07-26T14:45:12.374Z,99.90
2022-07-26T14:47:40.633Z,99.90
2022-07-26T14:50:10.019Z,99.90
2022-07-26T14:52:39.200Z,38.50
2022-07-26T14:55:08.706Z,99.90
2022-07-26T14:57:38.219Z,99.90
2022-07-26T15:00:11.029Z,65.70
2022-07-26T15:02:40.498Z,1.00
2022-07-26T15:05:09.414Z,1.00
2022-07-26T15:07:37.739Z,99.90
2022-07-26T15:10:06.620Z,99.90
2022-07-26T15:12:35.101Z,1.00
2022-07-26T15:15:03.357Z,99.90
2022-07-26T15:17:33.154Z,99.90
2022-07-26T15:20:01.706Z,99.90
2022-07-26T15:22:29.880Z,99.90
2022-07-26T15:24:58.165Z,99.90
2022-07-26T15:27:26.370Z,99.90
2022-07-26T15:29:58.224Z,83.90
2022-07-26T15:32:32.249Z,44.90
2022-07-26T15:35:00.604Z,99.90
2022-07-26T15:37:28.968Z,99.90
2022-07-26T15:39:57.256Z,99.90
2022-07-26T15:42:25.459Z,1.00
2022-07-26T15:44:53.929Z,8.10
2022-07-26T15:47:52.182Z,1.00
2022-07-26T15:50:14.149Z,1.00
2022-07-26T15:52:44.089Z,1.00
2022-07-26T15:55:12.643Z,1.00
2022-07-26T15:57:41.012Z,1.00
2022-07-26T16:00:11.078Z,1.00
2022-07-26T16:02:40.288Z,1.00
2022-07-26T16:05:09.323Z,1.00
2022-07-26T16:07:41.542Z,1.00
2022-07-26T16:10:10.800Z,1.00
2022-07-26T16:12:39.041Z,1.00
2022-07-26T16:15:08.378Z,1.00
2022-07-26T16:17:36.568Z,1.00
2022-07-26T16:20:05.582Z,1.00
2022-07-26T16:22:33.849Z,1.00
2022-07-26T16:25:06.276Z,1.00
2022-07-26T16:27:34.523Z,1.00
2022-07-26T16:30:02.841Z,1.00
2022-07-26T16:32:31.046Z,1.00
2022-07-26T16:34:59.342Z,1.00
2022-07-26T16:37:27.552Z,1.00
2022-07-26T16:39:56.011Z,1.00
2022-07-26T16:42:25.653Z,1.00
2022-07-26T16:44:53.957Z,1.00
2022-07-26T16:47:22.227Z,1.00
2022-07-26T16:49:50.574Z,1.00
2022-07-26T16:52:18.974Z,1.00
2022-07-26T16:54:47.178Z,1.00
2022-07-26T16:57:15.535Z,1.00
2022-07-26T16:59:45.159Z,41.40
2022-07-26T17:02:13.477Z,1.00
2022-07-26T17:04:41.741Z,1.00
2022-07-26T17:07:26.221Z,1.00
2022-07-26T17:09:55.014Z,21.60
2022-07-26T17:12:23.283Z,76.30
2022-07-26T17:14:53.214Z,99.90
2022-07-26T17:17:21.342Z,99.90
2022-07-26T17:19:49.656Z,9.00
2022-07-26T17:22:18.320Z,1.00
2022-07-26T17:24:46.497Z,1.00
2022-07-26T17:27:14.865Z,1.00
2022-07-26T17:29:43.045Z,99.90
2022-07-26T17:32:12.836Z,99.90
2022-07-26T17:34:41.064Z,99.90
2022-07-26T17:37:10.083Z,99.90
2022-07-26T17:39:51.588Z,99.90
2022-07-26T17:42:21.090Z,99.90
2022-07-26T17:44:49.463Z,99.90
2022-07-26T17:47:28.992Z,99.90
2022-07-26T17:50:14.043Z,99.90
2022-07-26T17:52:44.032Z,99.90
2022-07-26T17:55:12.302Z,99.90
2022-07-26T17:57:40.515Z,99.90
2022-07-26T18:00:10.120Z,99.90
2022-07-26T18:02:39.706Z,99.90
2022-07-26T18:05:09.657Z,99.90
2022-07-26T18:07:38.405Z,99.90
2022-07-26T18:10:07.611Z,99.90
2022-07-26T18:12:36.091Z,89.40
2022-07-26T18:15:04.498Z,59.40
2022-07-26T18:17:32.948Z,99.90
2022-07-26T18:20:02.662Z,31.10
2022-07-26T18:22:31.009Z,1.00
2022-07-26T18:24:59.309Z,1.00
2022-07-26T18:27:28.427Z,1.00
2022-07-26T18:29:56.815Z,1.00
2022-07-26T18:32:25.090Z,1.00
2022-07-26T18:34:54.757Z,37.50
2022-07-26T18:37:57.050Z,1.00
2022-07-26T18:40:25.955Z,1.90
2022-07-26T18:42:54.207Z,19.90
2022-07-26T18:45:22.896Z,48.70
2022-07-26T18:47:51.220Z,72.70
2022-07-26T18:50:22.174Z,68.70
2022-07-26T18:52:51.886Z,99.90
2022-07-26T18:55:20.393Z,99.90
2022-07-26T18:57:48.654Z,99.90
2022-07-26T19:00:19.815Z,99.90
2022-07-26T19:02:48.349Z,99.90
2022-07-26T19:05:17.384Z,99.90
2022-07-26T19:07:45.888Z,99.90
2022-07-26T19:10:15.744Z,99.90
2022-07-26T19:12:45.451Z,99.90
2022-07-26T19:15:16.447Z,99.90
2022-07-26T19:17:44.705Z,99.90
2022-07-26T19:20:13.571Z,1.00
2022-07-26T19:22:44.132Z,1.00
2022-07-26T19:25:14.903Z,1.00
2022-07-26T19:27:44.440Z,1.00
2022-07-26T19:30:13.128Z,1.00
2022-07-26T19:32:41.373Z,17.50
2022-07-26T19:35:10.749Z,1.00
2022-07-26T19:37:39.029Z,1.00
2022-07-26T19:40:08.424Z,99.90
2022-07-26T19:42:36.628Z,86.50
2022-07-26T19:45:06.910Z,27.30
2022-07-26T19:47:36.084Z,99.90
2022-07-26T19:50:06.374Z,99.90
2022-07-26T19:52:36.153Z,20.30
2022-07-26T19:55:04.913Z,34.70
2022-07-26T19:57:33.106Z,99.90
2022-07-26T20:00:03.121Z,99.90
2022-07-26T20:02:32.748Z,99.90
2022-07-26T20:05:01.222Z,99.90
2022-07-26T20:07:29.409Z,99.90
2022-07-26T20:09:57.630Z,99.90
2022-07-26T20:12:25.840Z,99.90
2022-07-26T20:14:54.158Z,99.90
2022-07-26T20:17:23.437Z,99.90
2022-07-26T20:19:53.580Z,99.90
2022-07-26T20:22:23.540Z,99.90
2022-07-26T20:24:55.290Z,99.90
2022-07-26T20:27:23.592Z,99.90
2022-07-26T20:29:52.826Z,99.90
2022-07-26T20:32:22.389Z,99.90
2022-07-26T20:34:53.452Z,97.80
2022-07-26T20:37:21.685Z,99.90
2022-07-26T20:39:49.854Z,99.90
2022-07-26T20:42:21.761Z,99.90
2022-07-26T20:44:50.376Z,99.90
2022-07-26T20:47:18.606Z,99.90
2022-07-26T20:49:46.800Z,99.90
2022-07-26T20:52:16.461Z,99.90
2022-07-26T20:54:44.702Z,99.90
2022-07-26T20:57:12.906Z,99.90
2022-07-26T20:59:41.112Z,99.90
2022-07-26T21:02:09.380Z,1.00
2022-07-26T21:04:37.643Z,99.90
2022-07-26T21:07:05.894Z,99.90
2022-07-26T21:09:35.438Z,99.90
2022-07-26T21:12:03.762Z,99.90
2022-07-26T21:14:31.919Z,1.00
2022-07-26T21:17:00.290Z,99.90
2022-07-26T21:19:28.532Z,1.00
2022-07-26T21:21:57.210Z,1.00
2022-07-26T21:24:25.526Z,1.00
2022-07-26T21:26:55.536Z,1.00
2022-07-26T21:29:23.770Z,1.00
2022-07-26T21:31:51.943Z,99.90
2022-07-26T21:34:20.189Z,99.90
2022-07-26T21:36:48.519Z,1.00
2022-07-26T21:39:16.711Z,1.00
2022-07-26T21:41:45.057Z,1.00
2022-07-26T21:44:14.641Z,99.90
2022-07-26T21:46:42.864Z,1.00
2022-07-26T21:49:11.352Z,99.90
2022-07-26T21:51:39.885Z,57.60
2022-07-26T21:54:08.110Z,99.90
2022-07-26T21:56:36.384Z,1.00
2022-07-26T21:59:04.569Z,1.00
2022-07-26T22:01:34.312Z,1.00
2022-07-26T22:04:02.604Z,99.90
2022-07-26T22:06:30.839Z,99.90
2022-07-26T22:08:59.173Z,99.90
2022-07-26T22:11:27.415Z,99.90
2022-07-26T22:13:55.561Z,99.90
2022-07-26T22:16:23.860Z,99.90
2022-07-26T22:18:53.446Z,99.90
2022-07-26T22:21:21.792Z,1.00
2022-07-26T22:23:50.052Z,1.00
2022-07-26T22:26:18.839Z,99.90
2022-07-26T22:28:47.011Z,99.90
2022-07-26T22:31:15.261Z,99.90
2022-07-26T22:33:43.516Z,99.90
2022-07-26T22:36:13.062Z,99.90
2022-07-26T22:38:41.291Z,1.00
2022-07-26T22:41:09.521Z,1.00
2022-07-26T22:43:37.761Z,1.00
2022-07-26T22:46:06.010Z,99.90
2022-07-26T22:48:38.138Z,1.00
2022-07-26T22:51:06.891Z,99.90
2022-07-26T22:53:36.451Z,1.00
2022-07-26T22:56:04.758Z,99.90
2022-07-26T22:58:32.940Z,1.00
2022-07-26T23:01:02.683Z,1.00
2022-07-26T23:03:30.989Z,1.00
2022-07-26T23:06:02.443Z,99.90
2022-07-26T23:08:47.674Z,99.90
2022-07-26T23:11:17.632Z,1.00
2022-07-26T23:13:45.872Z,1.00
2022-07-26T23:16:14.132Z,1.00
2022-07-26T23:18:42.541Z,1.00
2022-07-26T23:21:10.729Z,58.20
2022-07-26T23:23:38.895Z,1.00
2022-07-26T23:26:07.176Z,1.00
2022-07-26T23:28:38.575Z,99.90
2022-07-26T23:31:08.838Z,1.00
2022-07-26T23:33:53.489Z,1.00
2022-07-26T23:36:25.963Z,1.00
2022-07-26T23:38:54.368Z,1.00
2022-07-26T23:41:22.586Z,1.00
2022-07-26T23:43:52.210Z,1.00
2022-07-26T23:46:20.500Z,1.00
2022-07-26T23:48:48.806Z,1.00
2022-07-26T23:51:17.008Z,1.00
2022-07-26T23:53:45.242Z,1.00
2022-07-26T23:56:13.486Z,1.00
2022-07-26T23:58:41.718Z,1.00
